sensor_id;sensor_type;location;lat;lon;timestamp;temperature;humidity
29453;DHT22;16424;50.956;5.320;2024-01-06T00:01:38;8.30;99.90
29453;DHT22;16424;50.956;5.320;2024-01-06T00:04:04;8.40;99.90
29453;DHT22;16424;50.956;5.320;2024-01-06T00:06:30;8.50;99.90
29453;DHT22;16424;50.956;5.320;2024-01-06T00:08:56;8.40;99.90
29453;DHT22;16424;50.956;5.320;2024-01-06T00:11:22;8.50;99.90
29453;DHT22;16424;50.956;5.320;2024-01-06T00:13:48;8.50;99.90
29453;DHT22;16424;50.956;5.320;2024-01-06T00:16:17;8.40;99.90
29453;DHT22;16424;50.956;5.320;2024-01-06T00:18:43;8.40;99.90
29453;DHT22;16424;50.956;5.320;2024-01-06T00:21:09;8.50;99.90
29453;DHT22;16424;50.956;5.320;2024-01-06T00:23:34;8.50;99.90
29453;DHT22;16424;50.956;5.320;2024-01-06T00:26:00;8.60;99.90
29453;DHT22;16424;50.956;5.320;2024-01-06T00:28:26;8.50;99.90
29453;DHT22;16424;50.956;5.320;2024-01-06T00:30:51;8.40;99.90
29453;DHT22;16424;50.956;5.320;2024-01-06T00:33:17;8.40;99.90
29453;DHT22;16424;50.956;5.320;2024-01-06T00:35:43;8.40;99.90
29453;DHT22;16424;50.956;5.320;2024-01-06T00:38:08;8.40;99.90
29453;DHT22;16424;50.956;5.320;2024-01-06T00:40:34;8.50;99.90
29453;DHT22;16424;50.956;5.320;2024-01-06T00:43:00;8.30;99.90
29453;DHT22;16424;50.956;5.320;2024-01-06T00:45:25;8.40;99.90
29453;DHT22;16424;50.956;5.320;2024-01-06T00:47:51;8.50;99.90
29453;DHT22;16424;50.956;5.320;2024-01-06T00:50:18;8.60;99.90
29453;DHT22;16424;50.956;5.320;2024-01-06T00:52:45;8.60;99.90
29453;DHT22;16424;50.956;5.320;2024-01-06T00:55:11;8.60;99.90
29453;DHT22;16424;50.956;5.320;2024-01-06T00:57:36;8.60;99.90
29453;DHT22;16424;50.956;5.320;2024-01-06T01:00:04;8.70;99.90
29453;DHT22;16424;50.956;5.320;2024-01-06T01:02:31;8.70;99.90
29453;DHT22;16424;50.956;5.320;2024-01-06T01:04:56;8.80;99.90
29453;DHT22;16424;50.956;5.320;2024-01-06T01:07:23;8.90;99.90
29453;DHT22;16424;50.956;5.320;2024-01-06T01:09:49;8.90;99.90
29453;DHT22;16424;50.956;5.320;2024-01-06T01:12:15;8.80;99.90
29453;DHT22;16424;50.956;5.320;2024-01-06T01:14:40;8.70;99.90
29453;DHT22;16424;50.956;5.320;2024-01-06T01:17:06;8.80;99.90
29453;DHT22;16424;50.956;5.320;2024-01-06T01:19:32;8.70;99.90
29453;DHT22;16424;50.956;5.320;2024-01-06T01:21:57;8.60;99.90
29453;DHT22;16424;50.956;5.320;2024-01-06T01:24:23;8.50;99.90
29453;DHT22;16424;50.956;5.320;2024-01-06T01:26:49;8.50;99.90
29453;DHT22;16424;50.956;5.320;2024-01-06T01:29:18;8.30;99.90
29453;DHT22;16424;50.956;5.320;2024-01-06T01:31:46;8.30;99.90
29453;DHT22;16424;50.956;5.320;2024-01-06T01:34:11;8.40;99.90
29453;DHT22;16424;50.956;5.320;2024-01-06T01:36:37;8.50;99.90
29453;DHT22;16424;50.956;5.320;2024-01-06T01:39:03;8.40;99.90
29453;DHT22;16424;50.956;5.320;2024-01-06T01:41:28;8.50;99.90
29453;DHT22;16424;50.956;5.320;2024-01-06T01:43:54;8.50;99.90
29453;DHT22;16424;50.956;5.320;2024-01-06T01:46:30;8.40;99.90
29453;DHT22;16424;50.956;5.320;2024-01-06T01:48:57;8.50;99.90
29453;DHT22;16424;50.956;5.320;2024-01-06T01:51:27;8.50;99.90
29453;DHT22;16424;50.956;5.320;2024-01-06T01:53:54;8.50;99.90
29453;DHT22;16424;50.956;5.320;2024-01-06T01:56:20;8.70;99.90
29453;DHT22;16424;50.956;5.320;2024-01-06T01:58:46;8.70;99.90
29453;DHT22;16424;50.956;5.320;2024-01-06T02:01:13;8.60;99.90
29453;DHT22;16424;50.956;5.320;2024-01-06T02:03:41;8.60;99.90
29453;DHT22;16424;50.956;5.320;2024-01-06T02:06:09;8.60;99.90
29453;DHT22;16424;50.956;5.320;2024-01-06T02:08:35;8.60;99.90
29453;DHT22;16424;50.956;5.320;2024-01-06T02:11:01;8.40;99.90
29453;DHT22;16424;50.956;5.320;2024-01-06T02:13:36;8.20;99.90
29453;DHT22;16424;50.956;5.320;2024-01-06T02:16:04;8.30;99.90
29453;DHT22;16424;50.956;5.320;2024-01-06T02:18:30;8.30;99.90
29453;DHT22;16424;50.956;5.320;2024-01-06T02:21:01;8.20;99.90
29453;DHT22;16424;50.956;5.320;2024-01-06T02:23:28;8.20;99.90
29453;DHT22;16424;50.956;5.320;2024-01-06T02:25:54;8.20;99.90
29453;DHT22;16424;50.956;5.320;2024-01-06T02:28:20;8.30;99.90
29453;DHT22;16424;50.956;5.320;2024-01-06T02:30:47;8.40;99.90
29453;DHT22;16424;50.956;5.320;2024-01-06T02:33:12;8.40;99.90
29453;DHT22;16424;50.956;5.320;2024-01-06T02:35:38;8.30;99.90
29453;DHT22;16424;50.956;5.320;2024-01-06T02:38:05;8.30;99.90
29453;DHT22;16424;50.956;5.320;2024-01-06T02:40:31;8.40;99.90
29453;DHT22;16424;50.956;5.320;2024-01-06T02:42:58;8.50;99.90
29453;DHT22;16424;50.956;5.320;2024-01-06T02:45:23;8.40;99.90
29453;DHT22;16424;50.956;5.320;2024-01-06T02:47:49;8.20;99.90
29453;DHT22;16424;50.956;5.320;2024-01-06T02:50:15;8.20;99.90
29453;DHT22;16424;50.956;5.320;2024-01-06T02:52:40;8.20;99.90
29453;DHT22;16424;50.956;5.320;2024-01-06T02:55:06;8.10;99.90
29453;DHT22;16424;50.956;5.320;2024-01-06T02:57:32;8.00;99.90
29453;DHT22;16424;50.956;5.320;2024-01-06T02:59:58;8.00;99.90
29453;DHT22;16424;50.956;5.320;2024-01-06T03:02:23;7.90;99.90
29453;DHT22;16424;50.956;5.320;2024-01-06T03:04:49;7.90;99.90
29453;DHT22;16424;50.956;5.320;2024-01-06T03:07:15;7.80;99.90
29453;DHT22;16424;50.956;5.320;2024-01-06T03:09:41;7.90;99.90
29453;DHT22;16424;50.956;5.320;2024-01-06T03:12:07;7.80;99.90
29453;DHT22;16424;50.956;5.320;2024-01-06T03:14:36;7.80;99.90
29453;DHT22;16424;50.956;5.320;2024-01-06T03:17:02;7.80;99.90
29453;DHT22;16424;50.956;5.320;2024-01-06T03:19:28;7.70;99.90
29453;DHT22;16424;50.956;5.320;2024-01-06T03:21:54;7.60;99.90
29453;DHT22;16424;50.956;5.320;2024-01-06T03:24:21;7.60;99.90
29453;DHT22;16424;50.956;5.320;2024-01-06T03:26:47;7.70;99.90
29453;DHT22;16424;50.956;5.320;2024-01-06T03:29:12;7.60;99.90
29453;DHT22;16424;50.956;5.320;2024-01-06T03:31:42;7.60;99.90
29453;DHT22;16424;50.956;5.320;2024-01-06T03:34:08;7.60;99.90
29453;DHT22;16424;50.956;5.320;2024-01-06T03:36:34;7.70;99.90
29453;DHT22;16424;50.956;5.320;2024-01-06T03:38:59;7.70;99.90
29453;DHT22;16424;50.956;5.320;2024-01-06T03:41:25;7.80;99.90
29453;DHT22;16424;50.956;5.320;2024-01-06T03:43:51;7.80;99.90
29453;DHT22;16424;50.956;5.320;2024-01-06T03:46:16;7.90;99.90
29453;DHT22;16424;50.956;5.320;2024-01-06T03:48:42;7.90;99.90
29453;DHT22;16424;50.956;5.320;2024-01-06T03:51:07;7.70;99.90
29453;DHT22;16424;50.956;5.320;2024-01-06T03:53:34;7.70;99.90
29453;DHT22;16424;50.956;5.320;2024-01-06T03:56:00;7.60;99.90
29453;DHT22;16424;50.956;5.320;2024-01-06T03:58:26;7.50;99.90
29453;DHT22;16424;50.956;5.320;2024-01-06T04:00:51;7.50;99.90
29453;DHT22;16424;50.956;5.320;2024-01-06T04:03:17;7.40;99.90
29453;DHT22;16424;50.956;5.320;2024-01-06T04:05:43;7.40;99.90
29453;DHT22;16424;50.956;5.320;2024-01-06T04:08:09;7.30;99.90
29453;DHT22;16424;50.956;5.320;2024-01-06T04:10:34;7.40;99.90
29453;DHT22;16424;50.956;5.320;2024-01-06T04:13:00;7.50;99.90
29453;DHT22;16424;50.956;5.320;2024-01-06T04:15:27;7.50;99.90
29453;DHT22;16424;50.956;5.320;2024-01-06T04:17:54;7.60;99.90
29453;DHT22;16424;50.956;5.320;2024-01-06T04:20:19;7.70;99.90
29453;DHT22;16424;50.956;5.320;2024-01-06T04:22:45;7.80;99.90
29453;DHT22;16424;50.956;5.320;2024-01-06T04:25:11;7.70;99.90
29453;DHT22;16424;50.956;5.320;2024-01-06T04:27:36;7.70;99.90
29453;DHT22;16424;50.956;5.320;2024-01-06T04:30:02;7.50;99.90
29453;DHT22;16424;50.956;5.320;2024-01-06T04:32:28;7.60;99.90
29453;DHT22;16424;50.956;5.320;2024-01-06T04:34:53;7.50;99.90
29453;DHT22;16424;50.956;5.320;2024-01-06T04:37:19;7.40;99.90
29453;DHT22;16424;50.956;5.320;2024-01-06T04:39:45;7.40;99.90
29453;DHT22;16424;50.956;5.320;2024-01-06T04:42:10;7.40;99.90
29453;DHT22;16424;50.956;5.320;2024-01-06T04:44:36;7.40;99.90
29453;DHT22;16424;50.956;5.320;2024-01-06T04:47:01;7.40;99.90
29453;DHT22;16424;50.956;5.320;2024-01-06T04:49:27;7.20;99.90
29453;DHT22;16424;50.956;5.320;2024-01-06T04:51:53;7.00;99.90
29453;DHT22;16424;50.956;5.320;2024-01-06T04:54:18;6.80;99.90
29453;DHT22;16424;50.956;5.320;2024-01-06T04:56:44;6.60;99.90
29453;DHT22;16424;50.956;5.320;2024-01-06T04:59:09;6.50;99.90
29453;DHT22;16424;50.956;5.320;2024-01-06T05:01:35;6.40;99.90
29453;DHT22;16424;50.956;5.320;2024-01-06T05:04:01;6.40;99.90
29453;DHT22;16424;50.956;5.320;2024-01-06T05:06:27;6.40;99.90
29453;DHT22;16424;50.956;5.320;2024-01-06T05:08:52;6.30;99.90
29453;DHT22;16424;50.956;5.320;2024-01-06T05:11:18;6.20;99.90
29453;DHT22;16424;50.956;5.320;2024-01-06T05:13:44;6.20;99.90
29453;DHT22;16424;50.956;5.320;2024-01-06T05:16:09;6.20;99.90
29453;DHT22;16424;50.956;5.320;2024-01-06T05:18:35;6.20;99.90
29453;DHT22;16424;50.956;5.320;2024-01-06T05:21:01;6.30;99.90
29453;DHT22;16424;50.956;5.320;2024-01-06T05:23:27;6.40;99.90
29453;DHT22;16424;50.956;5.320;2024-01-06T05:25:53;6.40;99.90
29453;DHT22;16424;50.956;5.320;2024-01-06T05:28:18;6.40;99.90
29453;DHT22;16424;50.956;5.320;2024-01-06T05:30:44;6.40;99.90
29453;DHT22;16424;50.956;5.320;2024-01-06T05:33:10;6.60;99.90
29453;DHT22;16424;50.956;5.320;2024-01-06T05:35:38;6.60;99.90
29453;DHT22;16424;50.956;5.320;2024-01-06T05:38:04;6.60;99.90
29453;DHT22;16424;50.956;5.320;2024-01-06T05:40:30;6.60;99.90
29453;DHT22;16424;50.956;5.320;2024-01-06T05:42:55;6.60;99.90
29453;DHT22;16424;50.956;5.320;2024-01-06T05:45:22;6.50;99.90
29453;DHT22;16424;50.956;5.320;2024-01-06T05:47:48;6.30;99.90
29453;DHT22;16424;50.956;5.320;2024-01-06T05:50:15;6.20;99.90
29453;DHT22;16424;50.956;5.320;2024-01-06T05:52:42;6.20;99.90
29453;DHT22;16424;50.956;5.320;2024-01-06T05:55:08;6.20;99.90
29453;DHT22;16424;50.956;5.320;2024-01-06T05:57:34;6.30;99.90
29453;DHT22;16424;50.956;5.320;2024-01-06T06:00:00;6.20;99.90
29453;DHT22;16424;50.956;5.320;2024-01-06T06:02:26;6.20;99.90
29453;DHT22;16424;50.956;5.320;2024-01-06T06:04:52;6.30;99.90
29453;DHT22;16424;50.956;5.320;2024-01-06T06:07:18;6.30;99.90
29453;DHT22;16424;50.956;5.320;2024-01-06T06:09:44;6.40;99.90
29453;DHT22;16424;50.956;5.320;2024-01-06T06:12:15;6.50;99.90
29453;DHT22;16424;50.956;5.320;2024-01-06T06:14:41;6.50;99.90
29453;DHT22;16424;50.956;5.320;2024-01-06T06:17:07;6.60;99.90
29453;DHT22;16424;50.956;5.320;2024-01-06T06:19:32;6.70;99.90
29453;DHT22;16424;50.956;5.320;2024-01-06T06:21:58;6.70;99.90
29453;DHT22;16424;50.956;5.320;2024-01-06T06:24:24;6.70;99.90
29453;DHT22;16424;50.956;5.320;2024-01-06T06:26:49;6.60;99.90
29453;DHT22;16424;50.956;5.320;2024-01-06T06:29:15;6.60;99.90
29453;DHT22;16424;50.956;5.320;2024-01-06T06:31:41;6.60;99.90
29453;DHT22;16424;50.956;5.320;2024-01-06T06:34:08;6.70;99.90
29453;DHT22;16424;50.956;5.320;2024-01-06T06:36:35;6.70;99.90
29453;DHT22;16424;50.956;5.320;2024-01-06T06:39:00;6.70;99.90
29453;DHT22;16424;50.956;5.320;2024-01-06T06:41:26;6.80;99.90
29453;DHT22;16424;50.956;5.320;2024-01-06T06:43:52;6.80;99.90
29453;DHT22;16424;50.956;5.320;2024-01-06T06:46:17;6.90;99.90
29453;DHT22;16424;50.956;5.320;2024-01-06T06:48:43;6.80;99.90
29453;DHT22;16424;50.956;5.320;2024-01-06T06:51:09;6.70;99.90
29453;DHT22;16424;50.956;5.320;2024-01-06T06:53:36;6.70;99.90
29453;DHT22;16424;50.956;5.320;2024-01-06T06:56:01;6.60;99.90
29453;DHT22;16424;50.956;5.320;2024-01-06T06:58:27;6.50;99.90
29453;DHT22;16424;50.956;5.320;2024-01-06T07:00:53;6.40;99.90
29453;DHT22;16424;50.956;5.320;2024-01-06T07:03:20;6.30;99.90
29453;DHT22;16424;50.956;5.320;2024-01-06T07:05:45;6.20;99.90
29453;DHT22;16424;50.956;5.320;2024-01-06T07:08:11;6.30;99.90
29453;DHT22;16424;50.956;5.320;2024-01-06T07:10:38;6.20;99.90
29453;DHT22;16424;50.956;5.320;2024-01-06T07:13:04;6.30;99.90
29453;DHT22;16424;50.956;5.320;2024-01-06T07:15:30;6.20;99.90
29453;DHT22;16424;50.956;5.320;2024-01-06T07:17:56;6.30;99.90
29453;DHT22;16424;50.956;5.320;2024-01-06T07:20:22;6.30;99.90
29453;DHT22;16424;50.956;5.320;2024-01-06T07:22:47;6.10;99.90
29453;DHT22;16424;50.956;5.320;2024-01-06T07:25:13;6.00;99.90
29453;DHT22;16424;50.956;5.320;2024-01-06T07:27:39;6.10;99.90
29453;DHT22;16424;50.956;5.320;2024-01-06T07:30:05;6.00;99.90
29453;DHT22;16424;50.956;5.320;2024-01-06T07:32:34;5.90;99.90
29453;DHT22;16424;50.956;5.320;2024-01-06T07:34:59;5.90;99.90
29453;DHT22;16424;50.956;5.320;2024-01-06T07:37:25;5.90;99.90
29453;DHT22;16424;50.956;5.320;2024-01-06T07:39:51;6.00;99.90
29453;DHT22;16424;50.956;5.320;2024-01-06T07:42:17;5.90;99.90
29453;DHT22;16424;50.956;5.320;2024-01-06T07:44:43;5.80;99.90
29453;DHT22;16424;50.956;5.320;2024-01-06T07:47:10;5.80;99.90
29453;DHT22;16424;50.956;5.320;2024-01-06T07:49:35;5.80;99.90
29453;DHT22;16424;50.956;5.320;2024-01-06T07:52:01;5.80;99.90
29453;DHT22;16424;50.956;5.320;2024-01-06T07:54:27;5.70;99.90
29453;DHT22;16424;50.956;5.320;2024-01-06T07:56:53;5.70;99.90
29453;DHT22;16424;50.956;5.320;2024-01-06T07:59:19;5.70;99.90
29453;DHT22;16424;50.956;5.320;2024-01-06T08:01:44;5.60;99.90
29453;DHT22;16424;50.956;5.320;2024-01-06T08:04:10;5.80;99.90
29453;DHT22;16424;50.956;5.320;2024-01-06T08:06:35;5.90;99.90
29453;DHT22;16424;50.956;5.320;2024-01-06T08:09:01;5.90;99.90
29453;DHT22;16424;50.956;5.320;2024-01-06T08:11:27;5.80;99.90
29453;DHT22;16424;50.956;5.320;2024-01-06T08:13:52;5.80;99.90
29453;DHT22;16424;50.956;5.320;2024-01-06T08:16:18;5.80;99.90
29453;DHT22;16424;50.956;5.320;2024-01-06T08:18:44;5.80;99.90
29453;DHT22;16424;50.956;5.320;2024-01-06T08:21:11;6.00;99.90
29453;DHT22;16424;50.956;5.320;2024-01-06T08:23:37;6.00;99.90
29453;DHT22;16424;50.956;5.320;2024-01-06T08:26:03;5.80;99.90
29453;DHT22;16424;50.956;5.320;2024-01-06T08:28:29;5.90;99.90
29453;DHT22;16424;50.956;5.320;2024-01-06T08:30:55;6.10;99.90
29453;DHT22;16424;50.956;5.320;2024-01-06T08:33:21;6.10;99.90
29453;DHT22;16424;50.956;5.320;2024-01-06T08:35:47;6.20;99.90
29453;DHT22;16424;50.956;5.320;2024-01-06T08:38:12;6.30;99.90
29453;DHT22;16424;50.956;5.320;2024-01-06T08:40:38;6.20;99.90
29453;DHT22;16424;50.956;5.320;2024-01-06T08:43:04;6.00;99.90
29453;DHT22;16424;50.956;5.320;2024-01-06T08:45:29;6.00;99.90
29453;DHT22;16424;50.956;5.320;2024-01-06T08:47:56;6.10;99.90
29453;DHT22;16424;50.956;5.320;2024-01-06T08:50:22;6.20;99.90
29453;DHT22;16424;50.956;5.320;2024-01-06T08:52:48;6.10;99.90
29453;DHT22;16424;50.956;5.320;2024-01-06T08:55:16;6.10;99.90
29453;DHT22;16424;50.956;5.320;2024-01-06T08:57:42;5.90;99.90
29453;DHT22;16424;50.956;5.320;2024-01-06T09:00:08;6.10;99.90
29453;DHT22;16424;50.956;5.320;2024-01-06T09:02:34;6.00;99.90
29453;DHT22;16424;50.956;5.320;2024-01-06T09:05:00;6.00;99.90
29453;DHT22;16424;50.956;5.320;2024-01-06T09:07:25;5.90;99.90
29453;DHT22;16424;50.956;5.320;2024-01-06T09:09:51;6.00;99.90
29453;DHT22;16424;50.956;5.320;2024-01-06T09:12:17;6.10;99.90
29453;DHT22;16424;50.956;5.320;2024-01-06T09:14:42;6.20;99.90
29453;DHT22;16424;50.956;5.320;2024-01-06T09:17:08;6.20;99.90
29453;DHT22;16424;50.956;5.320;2024-01-06T09:19:34;6.20;99.90
29453;DHT22;16424;50.956;5.320;2024-01-06T09:22:00;6.30;99.90
29453;DHT22;16424;50.956;5.320;2024-01-06T09:24:26;6.20;99.90
29453;DHT22;16424;50.956;5.320;2024-01-06T09:26:51;6.30;99.90
29453;DHT22;16424;50.956;5.320;2024-01-06T09:29:17;6.20;99.90
29453;DHT22;16424;50.956;5.320;2024-01-06T09:31:43;6.20;99.90
29453;DHT22;16424;50.956;5.320;2024-01-06T09:34:12;6.10;99.90
29453;DHT22;16424;50.956;5.320;2024-01-06T09:36:38;6.00;99.90
29453;DHT22;16424;50.956;5.320;2024-01-06T09:39:04;5.90;99.90
29453;DHT22;16424;50.956;5.320;2024-01-06T09:41:31;6.00;99.90
29453;DHT22;16424;50.956;5.320;2024-01-06T09:43:57;6.10;99.90
29453;DHT22;16424;50.956;5.320;2024-01-06T09:46:27;6.10;99.90
29453;DHT22;16424;50.956;5.320;2024-01-06T09:48:53;6.10;99.90
29453;DHT22;16424;50.956;5.320;2024-01-06T09:51:20;6.00;99.90
29453;DHT22;16424;50.956;5.320;2024-01-06T09:56:18;5.90;99.90
29453;DHT22;16424;50.956;5.320;2024-01-06T09:58:44;6.00;99.90
29453;DHT22;16424;50.956;5.320;2024-01-06T10:01:11;6.10;99.90
29453;DHT22;16424;50.956;5.320;2024-01-06T10:03:38;6.00;99.90
29453;DHT22;16424;50.956;5.320;2024-01-06T10:06:04;6.10;99.90
29453;DHT22;16424;50.956;5.320;2024-01-06T10:08:30;6.00;99.90
29453;DHT22;16424;50.956;5.320;2024-01-06T10:10:59;6.00;99.90
29453;DHT22;16424;50.956;5.320;2024-01-06T10:13:25;5.90;99.90
29453;DHT22;16424;50.956;5.320;2024-01-06T10:15:51;5.90;99.90
29453;DHT22;16424;50.956;5.320;2024-01-06T10:18:16;5.90;99.90
29453;DHT22;16424;50.956;5.320;2024-01-06T10:20:44;5.90;99.90
29453;DHT22;16424;50.956;5.320;2024-01-06T10:23:11;6.00;99.90
29453;DHT22;16424;50.956;5.320;2024-01-06T10:25:36;6.00;99.90
29453;DHT22;16424;50.956;5.320;2024-01-06T10:28:02;6.10;99.90
29453;DHT22;16424;50.956;5.320;2024-01-06T10:30:28;6.00;99.90
29453;DHT22;16424;50.956;5.320;2024-01-06T10:32:54;6.10;99.90
29453;DHT22;16424;50.956;5.320;2024-01-06T10:35:20;6.10;99.90
29453;DHT22;16424;50.956;5.320;2024-01-06T10:37:47;6.10;99.90
29453;DHT22;16424;50.956;5.320;2024-01-06T10:40:15;6.00;99.90
29453;DHT22;16424;50.956;5.320;2024-01-06T10:42:42;6.00;99.90
29453;DHT22;16424;50.956;5.320;2024-01-06T10:45:10;6.00;99.90
29453;DHT22;16424;50.956;5.320;2024-01-06T10:47:36;6.00;99.90
29453;DHT22;16424;50.956;5.320;2024-01-06T10:50:03;6.00;99.90
29453;DHT22;16424;50.956;5.320;2024-01-06T10:52:29;6.20;99.90
29453;DHT22;16424;50.956;5.320;2024-01-06T10:54:55;6.30;99.90
29453;DHT22;16424;50.956;5.320;2024-01-06T10:57:21;6.30;99.90
29453;DHT22;16424;50.956;5.320;2024-01-06T10:59:50;6.30;99.90
29453;DHT22;16424;50.956;5.320;2024-01-06T11:02:16;6.50;99.90
29453;DHT22;16424;50.956;5.320;2024-01-06T11:04:48;6.60;99.90
29453;DHT22;16424;50.956;5.320;2024-01-06T11:07:17;6.50;99.90
29453;DHT22;16424;50.956;5.320;2024-01-06T11:09:51;6.50;99.90
29453;DHT22;16424;50.956;5.320;2024-01-06T11:12:18;6.60;99.90
29453;DHT22;16424;50.956;5.320;2024-01-06T11:14:44;6.60;99.90
29453;DHT22;16424;50.956;5.320;2024-01-06T11:17:11;6.50;99.90
29453;DHT22;16424;50.956;5.320;2024-01-06T11:24:53;6.30;99.90
29453;DHT22;16424;50.956;5.320;2024-01-06T11:27:24;6.30;99.90
29453;DHT22;16424;50.956;5.320;2024-01-06T11:29:52;6.30;99.90
29453;DHT22;16424;50.956;5.320;2024-01-06T11:32:30;6.20;99.90
29453;DHT22;16424;50.956;5.320;2024-01-06T11:35:06;6.00;99.90
29453;DHT22;16424;50.956;5.320;2024-01-06T11:42:41;6.00;99.90
29453;DHT22;16424;50.956;5.320;2024-01-06T11:45:08;6.00;99.90
29453;DHT22;16424;50.956;5.320;2024-01-06T11:47:34;6.10;99.90
29453;DHT22;16424;50.956;5.320;2024-01-06T11:50:02;6.10;99.90
29453;DHT22;16424;50.956;5.320;2024-01-06T11:52:31;6.20;99.90
29453;DHT22;16424;50.956;5.320;2024-01-06T11:54:58;6.30;99.90
29453;DHT22;16424;50.956;5.320;2024-01-06T11:57:26;6.30;99.90
29453;DHT22;16424;50.956;5.320;2024-01-06T11:59:52;6.20;99.90
29453;DHT22;16424;50.956;5.320;2024-01-06T12:02:18;6.30;99.90
29453;DHT22;16424;50.956;5.320;2024-01-06T12:04:51;6.10;99.90
29453;DHT22;16424;50.956;5.320;2024-01-06T12:07:18;5.80;99.90
29453;DHT22;16424;50.956;5.320;2024-01-06T12:09:45;5.80;99.90
29453;DHT22;16424;50.956;5.320;2024-01-06T12:12:11;5.90;99.90
29453;DHT22;16424;50.956;5.320;2024-01-06T12:14:40;5.80;99.90
29453;DHT22;16424;50.956;5.320;2024-01-06T12:17:08;5.80;99.90
29453;DHT22;16424;50.956;5.320;2024-01-06T12:19:34;5.70;99.90
29453;DHT22;16424;50.956;5.320;2024-01-06T12:22:01;5.70;99.90
29453;DHT22;16424;50.956;5.320;2024-01-06T12:24:28;5.80;99.90
29453;DHT22;16424;50.956;5.320;2024-01-06T12:26:56;5.70;99.90
29453;DHT22;16424;50.956;5.320;2024-01-06T12:29:22;5.60;99.90
29453;DHT22;16424;50.956;5.320;2024-01-06T12:31:48;5.70;99.90
29453;DHT22;16424;50.956;5.320;2024-01-06T12:34:14;5.70;99.90
29453;DHT22;16424;50.956;5.320;2024-01-06T12:36:41;5.70;99.90
29453;DHT22;16424;50.956;5.320;2024-01-06T12:39:12;5.70;99.90
29453;DHT22;16424;50.956;5.320;2024-01-06T12:41:41;5.80;99.90
29453;DHT22;16424;50.956;5.320;2024-01-06T12:44:08;5.90;99.90
29453;DHT22;16424;50.956;5.320;2024-01-06T12:46:33;6.00;99.90
29453;DHT22;16424;50.956;5.320;2024-01-06T12:48:59;5.90;99.90
29453;DHT22;16424;50.956;5.320;2024-01-06T12:51:25;5.90;99.90
29453;DHT22;16424;50.956;5.320;2024-01-06T12:53:50;5.80;99.90
29453;DHT22;16424;50.956;5.320;2024-01-06T12:56:17;5.80;99.90
29453;DHT22;16424;50.956;5.320;2024-01-06T12:58:43;5.80;99.90
29453;DHT22;16424;50.956;5.320;2024-01-06T13:01:09;5.90;99.90
29453;DHT22;16424;50.956;5.320;2024-01-06T13:03:35;5.80;99.90
29453;DHT22;16424;50.956;5.320;2024-01-06T13:06:01;5.70;99.90
29453;DHT22;16424;50.956;5.320;2024-01-06T13:08:28;5.80;99.90
29453;DHT22;16424;50.956;5.320;2024-01-06T13:10:54;5.80;99.90
29453;DHT22;16424;50.956;5.320;2024-01-06T13:13:20;5.80;99.90
29453;DHT22;16424;50.956;5.320;2024-01-06T13:15:46;5.80;99.90
29453;DHT22;16424;50.956;5.320;2024-01-06T13:18:12;5.80;99.90
29453;DHT22;16424;50.956;5.320;2024-01-06T13:20:41;5.80;99.90
29453;DHT22;16424;50.956;5.320;2024-01-06T13:23:07;5.80;99.90
29453;DHT22;16424;50.956;5.320;2024-01-06T13:25:34;5.70;99.90
29453;DHT22;16424;50.956;5.320;2024-01-06T13:28:00;5.70;99.90
29453;DHT22;16424;50.956;5.320;2024-01-06T13:30:26;5.70;99.90
29453;DHT22;16424;50.956;5.320;2024-01-06T13:32:52;5.50;99.90
29453;DHT22;16424;50.956;5.320;2024-01-06T13:35:20;5.60;99.90
29453;DHT22;16424;50.956;5.320;2024-01-06T13:37:46;5.50;99.90
29453;DHT22;16424;50.956;5.320;2024-01-06T13:40:14;5.50;99.90
29453;DHT22;16424;50.956;5.320;2024-01-06T13:42:40;5.50;99.90
29453;DHT22;16424;50.956;5.320;2024-01-06T13:45:06;5.60;99.90
29453;DHT22;16424;50.956;5.320;2024-01-06T13:47:32;5.70;99.90
29453;DHT22;16424;50.956;5.320;2024-01-06T13:49:58;5.60;99.90
29453;DHT22;16424;50.956;5.320;2024-01-06T13:52:24;5.70;99.90
29453;DHT22;16424;50.956;5.320;2024-01-06T13:54:50;5.80;99.90
29453;DHT22;16424;50.956;5.320;2024-01-06T13:57:16;5.90;99.90
29453;DHT22;16424;50.956;5.320;2024-01-06T13:59:41;6.00;99.90
29453;DHT22;16424;50.956;5.320;2024-01-06T14:02:08;5.90;99.90
29453;DHT22;16424;50.956;5.320;2024-01-06T14:04:35;5.80;99.90
29453;DHT22;16424;50.956;5.320;2024-01-06T14:07:01;5.80;99.90
29453;DHT22;16424;50.956;5.320;2024-01-06T14:09:28;5.80;99.90
29453;DHT22;16424;50.956;5.320;2024-01-06T14:11:53;5.80;99.90
29453;DHT22;16424;50.956;5.320;2024-01-06T14:14:20;5.70;99.90
29453;DHT22;16424;50.956;5.320;2024-01-06T14:16:47;5.70;99.90
29453;DHT22;16424;50.956;5.320;2024-01-06T14:19:13;5.70;99.90
29453;DHT22;16424;50.956;5.320;2024-01-06T14:21:39;5.60;99.90
29453;DHT22;16424;50.956;5.320;2024-01-06T14:24:05;5.50;99.90
29453;DHT22;16424;50.956;5.320;2024-01-06T14:26:32;5.30;99.90
29453;DHT22;16424;50.956;5.320;2024-01-06T14:28:58;5.30;99.90
29453;DHT22;16424;50.956;5.320;2024-01-06T14:31:24;5.20;99.90
29453;DHT22;16424;50.956;5.320;2024-01-06T14:33:50;5.10;99.90
29453;DHT22;16424;50.956;5.320;2024-01-06T14:36:16;5.20;99.90
29453;DHT22;16424;50.956;5.320;2024-01-06T14:38:43;5.20;99.90
29453;DHT22;16424;50.956;5.320;2024-01-06T14:41:09;5.30;99.90
29453;DHT22;16424;50.956;5.320;2024-01-06T14:43:35;5.30;99.90
29453;DHT22;16424;50.956;5.320;2024-01-06T14:46:00;5.20;99.90
29453;DHT22;16424;50.956;5.320;2024-01-06T14:48:26;5.20;99.90
29453;DHT22;16424;50.956;5.320;2024-01-06T14:50:52;5.20;99.90
29453;DHT22;16424;50.956;5.320;2024-01-06T14:53:17;5.10;99.90
29453;DHT22;16424;50.956;5.320;2024-01-06T14:55:43;5.20;99.90
29453;DHT22;16424;50.956;5.320;2024-01-06T14:58:09;5.30;99.90
29453;DHT22;16424;50.956;5.320;2024-01-06T15:00:37;5.30;99.90
29453;DHT22;16424;50.956;5.320;2024-01-06T15:03:03;5.40;99.90
29453;DHT22;16424;50.956;5.320;2024-01-06T15:05:29;5.30;99.90
29453;DHT22;16424;50.956;5.320;2024-01-06T15:07:55;5.40;99.90
29453;DHT22;16424;50.956;5.320;2024-01-06T15:10:21;5.40;99.90
29453;DHT22;16424;50.956;5.320;2024-01-06T15:12:47;5.30;99.90
29453;DHT22;16424;50.956;5.320;2024-01-06T15:15:13;5.40;99.90
29453;DHT22;16424;50.956;5.320;2024-01-06T15:17:39;5.40;99.90
29453;DHT22;16424;50.956;5.320;2024-01-06T15:20:06;5.30;99.90
29453;DHT22;16424;50.956;5.320;2024-01-06T15:22:31;5.30;99.90
29453;DHT22;16424;50.956;5.320;2024-01-06T15:24:57;5.20;99.90
29453;DHT22;16424;50.956;5.320;2024-01-06T15:27:25;5.30;99.90
29453;DHT22;16424;50.956;5.320;2024-01-06T15:29:50;5.20;99.90
29453;DHT22;16424;50.956;5.320;2024-01-06T15:32:16;5.10;99.90
29453;DHT22;16424;50.956;5.320;2024-01-06T15:34:42;5.20;99.90
29453;DHT22;16424;50.956;5.320;2024-01-06T15:37:07;5.40;99.90
29453;DHT22;16424;50.956;5.320;2024-01-06T15:39:33;5.40;99.90
29453;DHT22;16424;50.956;5.320;2024-01-06T15:41:58;5.40;99.90
29453;DHT22;16424;50.956;5.320;2024-01-06T15:44:24;5.40;99.90
29453;DHT22;16424;50.956;5.320;2024-01-06T15:46:50;5.30;99.90
29453;DHT22;16424;50.956;5.320;2024-01-06T15:49:16;5.20;99.90
29453;DHT22;16424;50.956;5.320;2024-01-06T15:51:42;5.20;99.90